首页
METAR-TAF:

METAR-TAF

机场 :

乞力马扎罗山, 坦桑尼亚

纬度: 03-25S, 经度: 037-04E, 海拔: 891米

当前天气观测

该预报发布于36分钟前的18:00 UTC
风速15节,风向
温度 26°C
湿度 54%
气压 1017 hPa
能见度10公里或以上
少量云层高于2600英尺

METAR: HTKJ 241800Z 09015KT 9999 FEW026 26/16 Q1017 NOSIG

时间: 21:36 (18:36 UTC)

预报

该预报发布于1小时和36分钟前的17:00 UTC
预报有效从24日的 18点(UTC)到 25日的 18点(UTC)
风速10节,风向
能见度10公里或以上
散云层高于2800英尺
成为
从 24日的 22点(UTC)到 25日的 01点(UTC)
风速节,风向

TAF: HTKJ 241700Z 2418/2518 09010KT 9999 SCT028 BECMG 2422/2501 00000KT

超过4000个机场的气象观测和天气预报(METAR&TAF报告)。

可查询的气象台以黄色和红色小点在地图上表示。

将鼠标移到小点上方,可查看气象台名称。

然后点击查看天气观测和预报。

如需切换地图:点击带黑十字的绿色按钮放大地图;点击带横线的绿色按钮缩小地图;或者点击绿色箭头查看邻近地区的地图。


METAR-TAF: